sensor_id;sensor_type;location;lat;lon;timestamp;P1;durP1;ratioP1;P2;durP2;ratioP2
31010;SDS011;26395;53.412;19.598;2023-02-18T00:09:40;7.80;;;3.60;;
31010;SDS011;26395;53.412;19.598;2023-02-18T00:25:14;11.90;;;3.30;;
31010;SDS011;26395;53.412;19.598;2023-02-18T00:40:30;12.70;;;2.80;;
31010;SDS011;26395;53.412;19.598;2023-02-18T00:55:45;12.70;;;3.40;;
31010;SDS011;26395;53.412;19.598;2023-02-18T01:10:52;11.30;;;3.60;;
31010;SDS011;26395;53.412;19.598;2023-02-18T01:25:57;11.90;;;3.50;;
31010;SDS011;26395;53.412;19.598;2023-02-18T01:41:01;9.60;;;2.40;;
31010;SDS011;26395;53.412;19.598;2023-02-18T01:56:05;7.60;;;2.50;;
31010;SDS011;26395;53.412;19.598;2023-02-18T02:41:42;9.90;;;2.30;;
31010;SDS011;26395;53.412;19.598;2023-02-18T03:12:30;8.30;;;2.40;;
31010;SDS011;26395;53.412;19.598;2023-02-18T03:27:41;12.90;;;3.00;;
31010;SDS011;26395;53.412;19.598;2023-02-18T03:42:52;12.90;;;3.10;;
31010;SDS011;26395;53.412;19.598;2023-02-18T03:57:56;10.80;;;2.90;;
31010;SDS011;26395;53.412;19.598;2023-02-18T04:12:59;14.50;;;2.70;;
31010;SDS011;26395;53.412;19.598;2023-02-18T04:28:03;10.20;;;2.40;;
31010;SDS011;26395;53.412;19.598;2023-02-18T04:43:07;8.10;;;2.00;;
31010;SDS011;26395;53.412;19.598;2023-02-18T04:58:11;11.80;;;2.20;;
31010;SDS011;26395;53.412;19.598;2023-02-18T05:13:14;7.10;;;2.40;;
31010;SDS011;26395;53.412;19.598;2023-02-18T05:28:17;6.90;;;2.50;;
31010;SDS011;26395;53.412;19.598;2023-02-18T05:43:21;17.30;;;4.30;;
31010;SDS011;26395;53.412;19.598;2023-02-18T05:58:25;18.90;;;4.40;;
31010;SDS011;26395;53.412;19.598;2023-02-18T06:13:28;15.50;;;2.80;;
31010;SDS011;26395;53.412;19.598;2023-02-18T06:28:32;11.20;;;3.20;;
31010;SDS011;26395;53.412;19.598;2023-02-18T06:43:35;12.90;;;2.60;;
31010;SDS011;26395;53.412;19.598;2023-02-18T06:58:39;12.50;;;3.80;;
31010;SDS011;26395;53.412;19.598;2023-02-18T07:13:42;16.30;;;2.70;;
31010;SDS011;26395;53.412;19.598;2023-02-18T07:28:46;16.10;;;3.10;;
31010;SDS011;26395;53.412;19.598;2023-02-18T07:43:49;13.40;;;4.10;;
31010;SDS011;26395;53.412;19.598;2023-02-18T07:58:53;23.20;;;5.10;;
31010;SDS011;26395;53.412;19.598;2023-02-18T08:13:57;24.10;;;8.30;;
31010;SDS011;26395;53.412;19.598;2023-02-18T08:29:01;24.70;;;6.60;;
31010;SDS011;26395;53.412;19.598;2023-02-18T08:44:04;14.60;;;5.50;;
31010;SDS011;26395;53.412;19.598;2023-02-18T08:59:08;35.60;;;11.60;;
31010;SDS011;26395;53.412;19.598;2023-02-18T09:15:27;34.80;;;8.90;;
31010;SDS011;26395;53.412;19.598;2023-02-18T09:30:30;57.90;;;24.20;;
31010;SDS011;26395;53.412;19.598;2023-02-18T09:45:34;30.70;;;12.10;;
31010;SDS011;26395;53.412;19.598;2023-02-18T10:00:39;99.00;;;49.60;;
31010;SDS011;26395;53.412;19.598;2023-02-18T10:15:44;52.00;;;25.30;;
31010;SDS011;26395;53.412;19.598;2023-02-18T10:30:51;25.40;;;9.30;;
31010;SDS011;26395;53.412;19.598;2023-02-18T11:01:16;21.30;;;7.50;;
31010;SDS011;26395;53.412;19.598;2023-02-18T11:16:23;23.20;;;7.30;;
31010;SDS011;26395;53.412;19.598;2023-02-18T11:31:44;16.70;;;6.90;;
31010;SDS011;26395;53.412;19.598;2023-02-18T13:51:03;22.50;;;6.50;;
31010;SDS011;26395;53.412;19.598;2023-02-18T14:21:21;11.90;;;5.20;;
31010;SDS011;26395;53.412;19.598;2023-02-18T14:51:47;16.00;;;4.30;;
31010;SDS011;26395;53.412;19.598;2023-02-18T15:06:58;69.40;;;27.00;;
31010;SDS011;26395;53.412;19.598;2023-02-18T15:22:03;59.30;;;22.30;;
31010;SDS011;26395;53.412;19.598;2023-02-18T15:37:09;50.20;;;19.10;;
31010;SDS011;26395;53.412;19.598;2023-02-18T15:52:16;68.50;;;19.80;;
31010;SDS011;26395;53.412;19.598;2023-02-18T16:07:30;118.20;;;50.40;;
31010;SDS011;26395;53.412;19.598;2023-02-18T16:22:44;36.60;;;17.30;;
31010;SDS011;26395;53.412;19.598;2023-02-18T16:37:53;127.10;;;48.40;;
31010;SDS011;26395;53.412;19.598;2023-02-18T16:52:59;83.10;;;25.80;;
31010;SDS011;26395;53.412;19.598;2023-02-18T17:23:26;94.00;;;37.70;;
31010;SDS011;26395;53.412;19.598;2023-02-18T17:38:30;46.90;;;15.30;;
31010;SDS011;26395;53.412;19.598;2023-02-18T17:53:34;41.10;;;14.70;;
31010;SDS011;26395;53.412;19.598;2023-02-18T18:08:38;81.30;;;21.80;;
31010;SDS011;26395;53.412;19.598;2023-02-18T18:23:41;52.70;;;32.40;;
31010;SDS011;26395;53.412;19.598;2023-02-18T18:38:45;22.00;;;10.40;;
31010;SDS011;26395;53.412;19.598;2023-02-18T18:53:49;39.70;;;17.90;;
31010;SDS011;26395;53.412;19.598;2023-02-18T19:08:53;25.70;;;9.70;;
31010;SDS011;26395;53.412;19.598;2023-02-18T19:23:57;50.50;;;25.50;;
31010;SDS011;26395;53.412;19.598;2023-02-18T19:39:01;45.60;;;24.90;;
31010;SDS011;26395;53.412;19.598;2023-02-18T19:54:05;28.80;;;12.70;;
31010;SDS011;26395;53.412;19.598;2023-02-18T20:09:08;22.10;;;9.50;;
31010;SDS011;26395;53.412;19.598;2023-02-18T20:24:11;22.00;;;9.40;;
31010;SDS011;26395;53.412;19.598;2023-02-18T20:39:15;40.50;;;17.30;;
31010;SDS011;26395;53.412;19.598;2023-02-18T20:54:23;31.90;;;11.90;;
31010;SDS011;26395;53.412;19.598;2023-02-18T21:09:28;12.90;;;5.90;;
31010;SDS011;26395;53.412;19.598;2023-02-18T21:24:33;16.00;;;5.40;;
31010;SDS011;26395;53.412;19.598;2023-02-18T21:39:37;24.90;;;8.20;;
31010;SDS011;26395;53.412;19.598;2023-02-18T21:54:43;19.80;;;7.40;;
31010;SDS011;26395;53.412;19.598;2023-02-18T22:09:48;14.20;;;4.80;;
31010;SDS011;26395;53.412;19.598;2023-02-18T22:24:52;19.00;;;4.90;;
31010;SDS011;26395;53.412;19.598;2023-02-18T22:39:55;12.30;;;5.20;;
31010;SDS011;26395;53.412;19.598;2023-02-18T22:54:59;13.80;;;6.00;;
31010;SDS011;26395;53.412;19.598;2023-02-18T23:10:02;12.50;;;5.00;;
31010;SDS011;26395;53.412;19.598;2023-02-18T23:25:06;13.10;;;4.50;;
31010;SDS011;26395;53.412;19.598;2023-02-18T23:40:10;13.50;;;4.80;;
31010;SDS011;26395;53.412;19.598;2023-02-18T23:55:16;18.40;;;6.40;;
